Time;durP1;ratioP1;P1;durP2;ratioP2;P2;SDS_P1;SDS_P2;PMS_P1;PMS_P2;Temp;Humidity;BMP_temperature;BMP_pressure;BME280_temperature;BME280_humidity;BME280_pressure;Samples;Min_cycle;Max_cycle;Signal;HPM_P1;HPM_P2
2021/10/24 00:00:07;;;;;;;11.07;7.77;;;8.70;99.90;;;;;;5045697;28;20228;-52
2021/10/24 00:02:34;;;;;;;13.77;8.30;;;8.70;99.90;;;;;;5046858;28;20188;-50
2021/10/24 00:05:01;;;;;;;12.57;7.70;;;8.70;99.90;;;;;;5043948;28;20207;-53
2021/10/24 00:07:27;;;;;;;11.23;7.73;;;8.60;99.90;;;;;;5041963;28;20620;-50
2021/10/24 00:09:54;;;;;;;12.03;8.07;;;8.60;99.90;;;;;;5045543;28;20668;-50
2021/10/24 00:12:21;;;;;;;11.67;8.27;;;8.50;99.90;;;;;;5045986;28;20200;-50
2021/10/24 00:14:48;;;;;;;8.10;7.20;;;8.50;99.90;;;;;;5046936;28;20262;-50
2021/10/24 00:17:16;;;;;;;12.40;7.90;;;8.50;99.90;;;;;;5046823;28;20303;-50
2021/10/24 00:19:43;;;;;;;9.83;7.03;;;8.50;99.90;;;;;;5043730;28;20206;-50
2021/10/24 00:22:09;;;;;;;11.13;7.70;;;8.40;99.90;;;;;;5043793;28;20642;-50
2021/10/24 00:24:36;;;;;;;10.83;8.23;;;8.40;99.90;;;;;;5040364;28;20220;-50
2021/10/24 00:27:03;;;;;;;8.70;7.77;;;8.40;99.90;;;;;;5050880;28;20266;-50
2021/10/24 00:29:30;;;;;;;12.63;8.13;;;8.40;99.90;;;;;;5051358;28;20633;-50
2021/10/24 00:31:57;;;;;;;10.57;7.20;;;8.40;99.90;;;;;;5049767;28;20346;-52
2021/10/24 00:34:24;;;;;;;9.13;7.13;;;8.40;99.90;;;;;;5050168;28;20214;-50
2021/10/24 00:36:51;;;;;;;11.07;7.77;;;8.30;99.90;;;;;;5049811;28;20226;-51
2021/10/24 00:39:17;;;;;;;9.53;7.20;;;8.30;99.90;;;;;;5051313;28;20279;-50
2021/10/24 00:41:45;;;;;;;13.83;8.47;;;8.30;99.90;;;;;;5050425;28;20204;-50
2021/10/24 00:44:18;;;;;;;11.87;7.83;;;8.30;99.90;;;;;;5051791;28;20326;-50
2021/10/24 00:46:45;;;;;;;11.60;7.23;;;8.20;99.90;;;;;;5047917;28;20592;-50
2021/10/24 00:49:12;;;;;;;11.43;8.00;;;8.30;99.90;;;;;;5049075;28;20302;-52
2021/10/24 00:51:39;;;;;;;9.00;7.53;;;8.20;99.90;;;;;;5049940;28;20240;-52
2021/10/24 00:54:07;;;;;;;12.70;7.63;;;8.20;99.90;;;;;;5050052;28;20563;-52
2021/10/24 00:56:34;;;;;;;9.77;7.87;;;8.10;99.90;;;;;;5046763;28;20254;-51
2021/10/24 00:59:01;;;;;;;12.37;7.23;;;8.20;99.90;;;;;;5050609;28;20237;-51
2021/10/24 01:01:28;;;;;;;11.27;7.43;;;8.10;99.90;;;;;;5046150;28;20743;-51
2021/10/24 01:03:55;;;;;;;10.37;8.20;;;8.10;99.90;;;;;;5049609;28;20213;-51
2021/10/24 01:06:22;;;;;;;9.27;6.30;;;8.10;99.90;;;;;;5047958;28;20236;-51
2021/10/24 01:08:49;;;;;;;8.27;6.60;;;8.00;99.90;;;;;;5049827;28;20649;-51
2021/10/24 01:11:17;;;;;;;9.53;6.70;;;8.00;99.90;;;;;;5049104;28;20194;-52
2021/10/24 01:13:44;;;;;;;9.80;7.10;;;8.00;99.90;;;;;;5050401;28;20199;-51
2021/10/24 01:16:14;;;;;;;10.63;7.20;;;8.00;99.90;;;;;;5049139;28;20277;-51
2021/10/24 01:18:41;;;;;;;11.57;7.97;;;8.00;99.90;;;;;;5049887;28;20249;-51
2021/10/24 01:21:09;;;;;;;10.30;7.83;;;8.00;99.90;;;;;;5048298;28;20713;-51
2021/10/24 01:23:36;;;;;;;8.33;7.27;;;7.90;99.90;;;;;;5049927;28;20279;-51
2021/10/24 01:26:05;;;;;;;10.73;7.23;;;7.90;99.90;;;;;;5046606;28;20249;-51
2021/10/24 01:28:33;;;;;;;10.07;7.40;;;7.90;99.90;;;;;;5045481;28;20228;-51
2021/10/24 01:31:00;;;;;;;8.10;7.23;;;7.80;99.90;;;;;;5046669;28;20246;-52
2021/10/24 01:33:28;;;;;;;9.67;7.67;;;7.80;99.90;;;;;;5045714;28;20697;-51
2021/10/24 01:35:58;;;;;;;10.57;7.67;;;7.90;99.90;;;;;;5047319;28;20242;-51
2021/10/24 01:38:26;;;;;;;12.80;7.40;;;7.80;99.90;;;;;;5044562;28;20671;-51
2021/10/24 01:40:55;;;;;;;14.17;7.43;;;7.80;99.90;;;;;;5048048;28;20207;-52
2021/10/24 01:43:23;;;;;;;11.10;7.20;;;7.70;99.90;;;;;;5047744;28;20195;-51
2021/10/24 01:45:51;;;;;;;13.27;8.40;;;7.70;99.90;;;;;;5047119;28;20256;-52
2021/10/24 01:48:18;;;;;;;12.17;7.33;;;7.70;99.90;;;;;;5048443;28;20197;-51
2021/10/24 01:50:45;;;;;;;11.33;8.07;;;7.70;99.90;;;;;;5045920;28;20203;-52
2021/10/24 01:53:18;;;;;;;10.33;8.20;;;7.70;99.90;;;;;;5047390;28;20207;-52
2021/10/24 01:55:45;;;;;;;12.67;7.63;;;7.70;99.90;;;;;;5049007;28;20304;-52
2021/10/24 01:58:12;;;;;;;12.40;8.07;;;7.60;99.90;;;;;;5048862;28;20549;-51
2021/10/24 02:00:40;;;;;;;8.90;7.83;;;7.60;99.90;;;;;;5048043;28;20259;-52
2021/10/24 02:03:07;;;;;;;13.13;8.47;;;7.70;99.90;;;;;;5047257;28;20192;-51
2021/10/24 02:05:34;;;;;;;9.17;7.90;;;7.60;99.90;;;;;;5045952;28;20233;-51
2021/10/24 02:08:01;;;;;;;11.97;7.70;;;7.60;99.90;;;;;;5048196;28;20253;-51
2021/10/24 02:10:28;;;;;;;12.13;8.10;;;7.60;99.90;;;;;;5046754;28;20198;-51
2021/10/24 02:12:55;;;;;;;9.43;7.50;;;7.60;99.90;;;;;;5048848;28;20210;-51
2021/10/24 02:15:22;;;;;;;11.57;7.70;;;7.60;99.90;;;;;;5049085;28;20593;-51
2021/10/24 02:17:50;;;;;;;10.90;8.27;;;7.60;99.90;;;;;;5048742;28;20192;-51
2021/10/24 02:20:17;;;;;;;11.50;8.93;;;7.60;99.90;;;;;;5048026;28;20615;-51
2021/10/24 02:22:44;;;;;;;11.83;8.27;;;7.60;99.90;;;;;;5046758;28;20641;-52
2021/10/24 02:25:11;;;;;;;10.90;8.20;;;7.60;99.90;;;;;;5046521;28;20199;-51
2021/10/24 02:27:38;;;;;;;9.97;7.70;;;7.50;99.90;;;;;;5045128;28;20203;-51
2021/10/24 02:30:06;;;;;;;10.20;8.13;;;7.60;99.90;;;;;;5046069;28;20265;-51
2021/10/24 02:32:33;;;;;;;10.60;8.20;;;7.50;99.90;;;;;;5044761;28;20206;-51
2021/10/24 02:35:00;;;;;;;10.40;8.10;;;7.50;99.90;;;;;;5048004;28;20307;-51
2021/10/24 02:37:27;;;;;;;11.90;8.70;;;7.50;99.90;;;;;;5044639;28;20628;-51
2021/10/24 02:39:54;;;;;;;12.10;8.60;;;7.50;99.90;;;;;;5043490;28;20702;-51
2021/10/24 02:42:21;;;;;;;11.80;8.43;;;7.50;99.90;;;;;;5046315;28;20199;-51
2021/10/24 02:44:48;;;;;;;10.77;8.37;;;7.50;99.90;;;;;;5048756;28;20296;-51
2021/10/24 02:47:17;;;;;;;12.67;8.53;;;7.50;99.90;;;;;;5047378;28;20418;-51
2021/10/24 02:49:44;;;;;;;11.13;7.90;;;7.40;99.90;;;;;;5045460;28;20366;-51
2021/10/24 02:52:11;;;;;;;12.63;8.90;;;7.40;99.90;;;;;;5045556;28;20294;-51
2021/10/24 02:54:38;;;;;;;10.53;7.83;;;7.40;99.90;;;;;;5047653;28;20227;-51
2021/10/24 02:57:05;;;;;;;10.37;8.10;;;7.50;99.90;;;;;;5046604;28;20189;-51
2021/10/24 02:59:33;;;;;;;10.60;7.30;;;7.40;99.90;;;;;;5045446;28;20198;-51
2021/10/24 03:02:01;;;;;;;9.93;8.10;;;7.40;99.90;;;;;;5046795;28;20627;-51
2021/10/24 03:04:28;;;;;;;10.00;8.03;;;7.40;99.90;;;;;;5045910;28;20627;-51
2021/10/24 03:06:55;;;;;;;11.20;8.50;;;7.40;99.90;;;;;;5045848;28;20260;-51
2021/10/24 03:09:22;;;;;;;11.93;8.87;;;7.40;99.90;;;;;;5037868;28;20291;-52
2021/10/24 03:11:49;;;;;;;17.97;8.10;;;7.40;99.90;;;;;;5035525;28;20256;-51
2021/10/24 03:14:16;;;;;;;14.30;9.00;;;7.40;99.90;;;;;;5037245;28;20206;-51
2021/10/24 03:16:44;;;;;;;11.33;8.67;;;7.40;99.90;;;;;;5036352;28;20254;-51
2021/10/24 03:19:11;;;;;;;10.73;8.50;;;7.30;99.90;;;;;;5039610;28;20240;-52
2021/10/24 03:21:38;;;;;;;13.13;8.63;;;7.30;99.90;;;;;;5037924;28;20408;-52
2021/10/24 03:24:05;;;;;;;12.00;8.43;;;7.30;99.90;;;;;;5038321;28;20197;-51
2021/10/24 03:26:34;;;;;;;9.97;7.63;;;7.20;99.90;;;;;;5039705;28;20204;-51
2021/10/24 03:29:01;;;;;;;11.40;7.93;;;7.30;99.90;;;;;;5047894;28;20206;-52
2021/10/24 03:31:28;;;;;;;12.63;8.30;;;7.30;99.90;;;;;;5045739;28;20232;-51
2021/10/24 03:33:55;;;;;;;9.40;8.07;;;7.20;99.90;;;;;;5047939;28;20203;-52
2021/10/24 03:36:22;;;;;;;12.70;9.17;;;7.20;99.90;;;;;;5046643;28;20940;-52
2021/10/24 03:38:49;;;;;;;12.00;8.47;;;7.10;99.90;;;;;;5048714;28;20251;-51
2021/10/24 03:41:16;;;;;;;10.17;8.37;;;7.20;99.90;;;;;;5043424;28;20196;-51
2021/10/24 03:43:43;;;;;;;10.27;7.97;;;7.20;99.90;;;;;;5048651;28;20199;-51
2021/10/24 03:46:10;;;;;;;10.73;8.60;;;7.10;99.90;;;;;;5045937;28;20688;-52
2021/10/24 03:48:37;;;;;;;10.50;8.47;;;7.20;99.90;;;;;;5047291;28;20612;-51
2021/10/24 03:51:04;;;;;;;9.00;7.77;;;7.10;99.90;;;;;;5042837;28;20244;-51
2021/10/24 03:53:30;;;;;;;11.87;7.87;;;7.20;99.90;;;;;;5047523;28;20287;-51
2021/10/24 03:55:58;;;;;;;11.07;7.80;;;7.10;99.90;;;;;;5045851;28;20212;-49
2021/10/24 03:58:26;;;;;;;10.23;8.30;;;7.20;99.90;;;;;;5045563;28;20245;-51
2021/10/24 04:00:53;;;;;;;11.13;7.70;;;7.20;99.90;;;;;;5048846;28;20230;-51
2021/10/24 04:03:20;;;;;;;12.50;7.57;;;7.20;99.90;;;;;;5049153;28;20194;-51
2021/10/24 04:05:49;;;;;;;12.30;8.37;;;7.20;99.90;;;;;;5049576;28;20228;-51
2021/10/24 04:08:16;;;;;;;10.30;8.53;;;7.10;99.90;;;;;;5049643;28;20201;-52
2021/10/24 04:10:44;;;;;;;10.73;7.93;;;7.10;99.90;;;;;;5051478;28;20259;-52
2021/10/24 04:13:11;;;;;;;8.83;7.70;;;7.10;99.90;;;;;;5046603;28;20265;-51
2021/10/24 04:15:38;;;;;;;9.90;7.63;;;7.00;99.90;;;;;;5048515;28;20250;-52
2021/10/24 04:18:05;;;;;;;11.27;7.67;;;7.00;99.90;;;;;;5046977;28;20298;-52
2021/10/24 04:20:32;;;;;;;13.30;8.53;;;6.90;99.90;;;;;;5048225;28;20346;-51
2021/10/24 04:22:59;;;;;;;9.30;7.77;;;7.00;99.90;;;;;;5046724;28;20203;-52
2021/10/24 04:25:26;;;;;;;10.10;8.00;;;6.90;99.90;;;;;;5046446;28;20756;-51
2021/10/24 04:27:53;;;;;;;11.77;8.27;;;6.90;99.90;;;;;;5053449;28;20234;-51
2021/10/24 04:30:21;;;;;;;11.17;7.87;;;6.90;99.90;;;;;;5051147;28;20200;-52
2021/10/24 04:32:48;;;;;;;11.27;8.23;;;6.90;99.90;;;;;;5049750;28;20207;-51
2021/10/24 04:35:15;;;;;;;9.43;8.13;;;6.80;99.90;;;;;;5048406;28;20254;-51
2021/10/24 04:37:42;;;;;;;9.13;7.93;;;6.80;99.90;;;;;;5049546;28;20222;-51
2021/10/24 04:40:10;;;;;;;12.33;8.27;;;6.80;99.90;;;;;;5050295;28;20193;-51
2021/10/24 04:42:37;;;;;;;14.07;8.90;;;6.80;99.90;;;;;;5044685;28;20283;-51
2021/10/24 04:45:05;;;;;;;9.27;8.20;;;6.80;99.90;;;;;;5048923;28;20192;-51
2021/10/24 04:47:33;;;;;;;11.20;8.00;;;6.80;99.90;;;;;;5050494;28;20696;-51
2021/10/24 04:49:59;;;;;;;10.50;8.90;;;6.80;99.90;;;;;;5045754;28;20295;-51
2021/10/24 04:52:26;;;;;;;10.97;8.27;;;6.70;99.90;;;;;;5050487;28;20506;-51
2021/10/24 04:54:53;;;;;;;10.13;8.10;;;6.70;99.90;;;;;;5046180;28;20271;-51
2021/10/24 04:57:21;;;;;;;11.00;8.50;;;6.70;99.90;;;;;;5047343;28;20200;-51
2021/10/24 04:59:48;;;;;;;11.60;8.87;;;6.70;99.90;;;;;;5049091;28;20662;-51
2021/10/24 05:02:14;;;;;;;11.97;8.87;;;6.80;99.90;;;;;;5047285;28;20730;-51
2021/10/24 05:04:41;;;;;;;10.80;8.60;;;6.80;99.90;;;;;;5048484;28;20212;-51
2021/10/24 05:07:08;;;;;;;9.53;8.30;;;6.70;99.90;;;;;;5048016;28;20226;-51
2021/10/24 05:09:35;;;;;;;12.27;8.53;;;6.70;99.90;;;;;;5049210;28;20200;-51
2021/10/24 05:12:02;;;;;;;14.57;8.73;;;6.70;99.90;;;;;;5046392;28;20200;-50
2021/10/24 05:14:29;;;;;;;12.17;8.10;;;6.70;99.90;;;;;;5049123;28;20288;-51
2021/10/24 05:16:56;;;;;;;11.90;8.03;;;6.60;99.90;;;;;;5048750;28;20208;-51
2021/10/24 05:19:23;;;;;;;10.40;7.63;;;6.60;99.90;;;;;;5050453;28;20192;-51
2021/10/24 05:21:50;;;;;;;13.07;7.90;;;6.60;99.90;;;;;;5045174;28;20647;-51
2021/10/24 05:24:17;;;;;;;13.20;8.43;;;6.60;99.90;;;;;;5049575;28;20231;-51
2021/10/24 05:26:44;;;;;;;10.10;7.63;;;6.60;99.90;;;;;;5045772;28;20258;-51
2021/10/24 05:29:11;;;;;;;9.40;8.40;;;6.60;99.90;;;;;;5051525;28;20209;-51
2021/10/24 05:31:38;;;;;;;9.77;7.63;;;6.70;99.90;;;;;;5045571;28;20208;-51
2021/10/24 05:34:05;;;;;;;12.60;8.00;;;6.70;99.90;;;;;;5050437;28;20207;-51
2021/10/24 05:36:32;;;;;;;11.83;7.63;;;6.60;99.90;;;;;;5046239;28;20227;-51
2021/10/24 05:38:59;;;;;;;9.87;8.00;;;6.60;99.90;;;;;;5050122;28;20783;-50
2021/10/24 05:41:27;;;;;;;10.27;7.70;;;6.60;99.90;;;;;;5047599;28;20192;-51
2021/10/24 05:43:55;;;;;;;10.27;7.10;;;6.60;99.90;;;;;;5046948;28;20198;-51
2021/10/24 05:46:21;;;;;;;9.93;8.13;;;6.60;99.90;;;;;;5048743;28;20205;-51
2021/10/24 05:48:50;;;;;;;10.53;7.90;;;6.60;99.90;;;;;;5048702;28;20209;-52
2021/10/24 05:51:17;;;;;;;13.73;8.37;;;6.60;99.90;;;;;;5046514;28;20247;-52
2021/10/24 05:53:45;;;;;;;9.70;7.40;;;6.50;99.90;;;;;;5047693;28;20616;-51
2021/10/24 05:56:12;;;;;;;11.30;7.53;;;6.60;99.90;;;;;;5047304;28;20266;-52
2021/10/24 05:58:39;;;;;;;12.90;7.67;;;6.50;99.90;;;;;;5045287;28;20267;-51
2021/10/24 06:01:06;;;;;;;9.23;7.37;;;6.40;99.90;;;;;;5041824;28;20759;-52
2021/10/24 06:03:33;;;;;;;10.53;7.60;;;6.40;99.90;;;;;;5050124;28;20302;-51
2021/10/24 06:06:00;;;;;;;10.70;7.27;;;6.40;99.90;;;;;;5044490;28;20744;-51
2021/10/24 06:08:27;;;;;;;9.13;6.77;;;6.40;99.90;;;;;;5047918;28;20635;-51
2021/10/24 06:10:56;;;;;;;9.37;6.60;;;6.40;99.90;;;;;;5048510;28;20677;-51
2021/10/24 06:13:24;;;;;;;14.93;7.60;;;6.40;99.90;;;;;;5048406;28;20631;-52
2021/10/24 06:15:51;;;;;;;13.93;7.53;;;6.40;99.90;;;;;;5044356;28;20712;-51
2021/10/24 06:18:18;;;;;;;10.30;7.67;;;6.40;99.90;;;;;;5047340;28;20625;-52
2021/10/24 06:20:45;;;;;;;11.53;6.80;;;6.40;99.90;;;;;;5046311;28;20200;-51
2021/10/24 06:23:12;;;;;;;9.50;7.03;;;6.40;99.90;;;;;;5046217;28;20719;-51
2021/10/24 06:25:39;;;;;;;10.53;7.03;;;6.40;99.90;;;;;;5049112;28;20310;-51
2021/10/24 06:28:06;;;;;;;8.47;6.57;;;6.40;99.90;;;;;;5047007;28;20212;-51
2021/10/24 06:30:32;;;;;;;8.33;7.00;;;6.40;99.90;;;;;;5047671;28;20264;-51
2021/10/24 06:32:59;;;;;;;8.50;6.57;;;6.50;99.90;;;;;;5049355;28;20284;-52
2021/10/24 06:35:26;;;;;;;9.77;6.73;;;6.50;99.90;;;;;;5047149;28;20641;-51
2021/10/24 06:37:53;;;;;;;8.83;6.47;;;6.40;99.90;;;;;;5044857;28;20225;-51
2021/10/24 06:40:20;;;;;;;9.27;7.20;;;6.40;99.90;;;;;;5049296;28;20595;-51
2021/10/24 06:42:47;;;;;;;11.90;6.80;;;6.40;99.90;;;;;;5047326;28;20713;-52
2021/10/24 06:45:14;;;;;;;10.73;7.67;;;6.40;99.90;;;;;;5046077;28;20236;-52
2021/10/24 06:47:41;;;;;;;11.77;7.93;;;6.40;99.90;;;;;;5048710;28;20197;-52
2021/10/24 06:50:10;;;;;;;8.90;6.70;;;6.40;99.90;;;;;;5047988;28;20200;-52
2021/10/24 06:52:38;;;;;;;13.73;7.27;;;6.50;99.90;;;;;;5046749;28;20202;-52
2021/10/24 06:55:05;;;;;;;9.07;7.07;;;6.60;99.90;;;;;;5047261;28;20858;-51
2021/10/24 06:57:52;;;;;;;10.13;7.40;;;6.60;99.90;;;;;;5047996;28;20215;-51
2021/10/24 07:00:27;;;;;;;9.43;7.13;;;6.60;99.90;;;;;;5047393;28;20194;-51
2021/10/24 07:02:55;;;;;;;9.97;7.50;;;6.70;99.90;;;;;;5046789;28;20668;-52
2021/10/24 07:05:23;;;;;;;9.17;7.50;;;6.70;99.90;;;;;;5043829;28;20201;-52
2021/10/24 07:07:50;;;;;;;9.83;7.53;;;6.70;99.90;;;;;;5044337;28;20230;-51
2021/10/24 07:10:18;;;;;;;8.27;7.00;;;6.60;99.90;;;;;;5047881;28;20292;-52
2021/10/24 07:12:51;;;;;;;10.33;7.87;;;6.60;99.90;;;;;;5043536;28;20607;-52
2021/10/24 07:15:23;;;;;;;9.17;7.07;;;6.60;99.90;;;;;;5047448;28;20240;-51
2021/10/24 07:17:51;;;;;;;10.30;7.50;;;6.70;99.90;;;;;;5044673;28;20676;-51
2021/10/24 07:20:18;;;;;;;13.33;7.57;;;6.80;99.90;;;;;;5043818;28;20225;-51
2021/10/24 07:22:45;;;;;;;9.40;7.47;;;6.80;99.90;;;;;;5045914;28;20216;-51
2021/10/24 07:25:13;;;;;;;10.90;6.83;;;6.80;99.90;;;;;;5042354;28;20200;-51
2021/10/24 07:27:41;;;;;;;8.67;7.00;;;6.70;99.90;;;;;;5045758;28;20240;-52
2021/10/24 07:30:09;;;;;;;9.80;7.10;;;6.90;99.90;;;;;;5038700;28;20721;-52
2021/10/24 07:32:36;;;;;;;9.67;6.53;;;6.90;99.90;;;;;;5032404;28;20247;-51
2021/10/24 07:35:05;;;;;;;10.50;7.00;;;7.00;99.90;;;;;;5033586;28;20209;-52
2021/10/24 07:37:31;;;;;;;9.00;7.57;;;7.20;99.90;;;;;;5035403;28;20265;-52
2021/10/24 07:39:58;;;;;;;10.47;7.57;;;7.30;99.90;;;;;;5033780;28;20202;-52
2021/10/24 07:42:26;;;;;;;13.57;7.27;;;7.60;99.90;;;;;;5030082;28;20205;-52
2021/10/24 07:44:54;;;;;;;11.87;6.77;;;7.70;99.90;;;;;;5030262;28;20236;-52
2021/10/24 07:47:21;;;;;;;10.53;6.47;;;7.70;99.90;;;;;;5035585;28;20615;-51
2021/10/24 07:49:48;;;;;;;11.10;6.80;;;8.00;99.90;;;;;;5041593;28;20270;-51
2021/10/24 07:52:17;;;;;;;7.63;6.10;;;8.20;99.90;;;;;;5044542;28;20666;-52
2021/10/24 07:54:43;;;;;;;10.47;6.20;;;8.40;99.90;;;;;;5041908;28;20662;-52
2021/10/24 07:57:10;;;;;;;8.10;6.03;;;8.30;99.90;;;;;;5044590;28;20685;-51
2021/10/24 07:59:37;;;;;;;9.07;5.40;;;8.60;99.90;;;;;;5042433;28;20251;-52
2021/10/24 08:02:04;;;;;;;8.77;5.80;;;9.00;99.90;;;;;;5043140;28;20675;-52
2021/10/24 08:04:35;;;;;;;11.00;6.20;;;9.30;99.90;;;;;;5042018;28;20633;-51
2021/10/24 08:07:03;;;;;;;7.53;6.13;;;9.60;91.90;;;;;;5042479;28;20647;-51
2021/10/24 08:09:31;;;;;;;6.90;5.23;;;9.80;21.50;;;;;;5044922;28;20547;-52
2021/10/24 08:11:58;;;;;;;11.00;5.83;;;10.10;59.80;;;;;;5038973;28;20720;-51
2021/10/24 08:14:26;;;;;;;9.30;5.73;;;10.30;1.00;;;;;;5047297;28;20262;-52
2021/10/24 08:16:53;;;;;;;7.00;5.03;;;10.40;1.00;;;;;;5040213;28;20260;-51
2021/10/24 08:19:20;;;;;;;6.73;5.57;;;10.60;1.00;;;;;;5044629;28;20201;-51
2021/10/24 08:21:47;;;;;;;9.23;5.17;;;10.80;1.00;;;;;;5042208;28;20280;-52
2021/10/24 08:24:14;;;;;;;8.53;5.13;;;10.90;1.00;;;;;;5038990;28;20550;-52
2021/10/24 08:26:41;;;;;;;7.83;4.50;;;11.20;1.00;;;;;;5039676;28;20610;-50
2021/10/24 08:29:08;;;;;;;7.13;5.00;;;11.30;1.00;;;;;;5040256;28;20707;-53
2021/10/24 08:31:35;;;;;;;8.13;5.30;;;11.60;1.00;;;;;;5038059;28;20207;-52
2021/10/24 08:34:03;;;;;;;6.93;4.73;;;11.60;1.00;;;;;;5041561;28;20596;-52
2021/10/24 08:36:31;;;;;;;6.73;4.90;;;11.40;1.00;;;;;;5033532;28;20691;-53
2021/10/24 08:38:58;;;;;;;5.93;4.80;;;11.60;1.00;;;;;;5033702;28;20204;-52
2021/10/24 08:41:28;;;;;;;6.30;4.70;;;11.60;1.00;;;;;;5037012;28;20616;-52
2021/10/24 08:44:02;;;;;;;8.53;4.77;;;11.70;1.00;;;;;;5031525;28;20488;-52
2021/10/24 08:46:30;;;;;;;6.47;4.50;;;12.00;1.00;;;;;;5036916;28;20207;-52
2021/10/24 08:48:57;;;;;;;7.27;4.43;;;12.00;1.00;;;;;;5037183;28;20558;-51
2021/10/24 08:51:28;;;;;;;6.50;5.00;;;12.40;1.00;;;;;;5031124;28;20246;-51
2021/10/24 08:53:56;;;;;;;6.90;4.23;;;12.40;1.00;;;;;;5042638;28;20250;-51
2021/10/24 08:56:26;;;;;;;8.27;4.60;;;12.30;1.00;;;;;;5037107;28;20222;-52
2021/10/24 08:58:53;;;;;;;7.00;4.90;;;12.50;1.00;;;;;;5039833;28;20222;-52
2021/10/24 09:01:20;;;;;;;6.87;4.60;;;12.70;1.00;;;;;;5043754;28;20613;-52
2021/10/24 09:04:08;;;;;;;7.80;4.37;;;13.10;1.00;;;;;;5035148;28;20548;-52
2021/10/24 09:07:00;;;;;;;5.77;4.87;;;13.40;1.00;;;;;;5037062;28;20266;-52
2021/10/24 09:09:30;;;;;;;5.27;4.13;;;13.70;1.00;;;;;;5036390;28;20196;-52
2021/10/24 09:12:07;;;;;;;7.40;4.17;;;13.50;99.90;;;;;;5036572;28;20634;-52
2021/10/24 09:14:45;;;;;;;5.97;4.33;;;13.70;99.90;;;;;;5032761;28;20681;-52
2021/10/24 09:17:25;;;;;;;4.70;4.20;;;13.50;99.90;;;;;;5040800;28;20676;-51
2021/10/24 09:20:04;;;;;;;6.53;4.97;;;13.80;99.90;;;;;;5039494;28;20817;-52
2021/10/24 09:22:39;;;;;;;5.73;4.17;;;14.20;99.90;;;;;;5034427;28;20440;-52
2021/10/24 09:25:15;;;;;;;4.93;4.33;;;14.30;99.90;;;;;;5035013;28;20219;-52
2021/10/24 09:28:00;;;;;;;6.47;4.10;;;14.50;99.90;;;;;;5038763;28;20245;-51
2021/10/24 09:30:33;;;;;;;6.57;4.27;;;14.40;99.90;;;;;;5040440;28;20299;-52
2021/10/24 09:33:02;;;;;;;6.80;4.37;;;14.10;99.90;;;;;;5042892;28;20218;-51
2021/10/24 09:35:35;;;;;;;7.80;4.13;;;13.20;99.90;;;;;;5037981;28;22115;-52
2021/10/24 09:38:04;;;;;;;6.53;4.60;;;13.20;99.90;;;;;;5033637;28;20256;-51
2021/10/24 09:40:39;;;;;;;7.00;4.63;;;13.20;99.90;;;;;;5036126;28;20602;-51
2021/10/24 09:43:27;;;;;;;8.27;4.43;;;13.50;99.90;;;;;;5040339;28;20235;-51
2021/10/24 09:45:56;;;;;;;6.10;4.03;;;13.50;99.90;;;;;;5037075;28;20293;-51
2021/10/24 09:48:28;;;;;;;6.53;4.53;;;13.70;99.90;;;;;;5038173;28;20312;-52
2021/10/24 09:51:05;;;;;;;8.17;4.13;;;13.40;99.90;;;;;;5040653;28;20204;-52
2021/10/24 09:53:36;;;;;;;7.97;4.53;;;13.20;99.90;;;;;;5043874;28;20243;-51
2021/10/24 09:56:07;;;;;;;5.00;3.63;;;14.10;99.90;;;;;;5036250;28;20196;-52
2021/10/24 09:58:42;;;;;;;7.10;4.23;;;13.30;99.90;;;;;;5038790;28;21627;-61
2021/10/24 10:01:18;;;;;;;8.30;4.27;;;13.70;99.90;;;;;;5032311;28;20253;-62
2021/10/24 10:03:48;;;;;;;5.10;3.63;;;14.30;99.90;;;;;;5033688;28;20204;-61
2021/10/24 10:06:33;;;;;;;6.40;3.93;;;14.30;99.90;;;;;;5039069;28;20232;-61
2021/10/24 10:09:00;;;;;;;7.00;3.97;;;14.30;99.90;;;;;;5032715;28;20196;-61
2021/10/24 10:11:44;;;;;;;7.23;4.23;;;13.80;99.90;;;;;;5037063;28;20209;-61
2021/10/24 10:14:17;;;;;;;5.77;4.47;;;13.80;99.90;;;;;;5037457;28;20291;-62
2021/10/24 10:16:51;;;;;;;5.93;4.17;;;13.10;99.90;;;;;;5038238;28;20216;-62
2021/10/24 10:19:37;;;;;;;5.47;3.53;;;13.60;99.90;;;;;;5045706;28;20893;-62
2021/10/24 10:22:22;;;;;;;7.07;4.60;;;14.10;99.90;;;;;;5040046;28;20671;-61
2021/10/24 10:25:04;;;;;;;4.97;4.00;;;14.10;99.90;;;;;;5032546;28;20227;-61
2021/10/24 10:27:38;;;;;;;8.60;4.37;;;13.10;99.90;;;;;;5034420;28;20298;-62
2021/10/24 10:30:06;;;;;;;7.80;3.83;;;13.00;99.90;;;;;;5042381;28;20259;-61
2021/10/24 10:32:51;;;;;;;6.07;4.03;;;13.50;99.90;;;;;;5039330;28;20259;-61
2021/10/24 10:35:22;;;;;;;5.90;3.90;;;13.40;99.90;;;;;;5034921;28;20229;-51
2021/10/24 10:37:52;;;;;;;7.43;4.07;;;13.60;99.90;;;;;;5041922;28;20277;-51
2021/10/24 10:40:26;;;;;;;4.60;3.60;;;13.70;99.90;;;;;;5030157;28;20273;-51
2021/10/24 10:43:17;;;;;;;4.47;4.07;;;13.70;99.90;;;;;;5038282;28;20195;-51
2021/10/24 10:46:03;;;;;;;4.97;3.57;;;13.70;99.90;;;;;;5029137;28;20375;-51
2021/10/24 10:48:40;;;;;;;5.63;4.00;;;13.60;99.90;;;;;;5044662;28;20554;-51
2021/10/24 10:51:24;;;;;;;4.40;3.60;;;13.70;99.90;;;;;;5025458;28;20751;-51
2021/10/24 10:54:03;;;;;;;6.07;3.10;;;13.50;99.90;;;;;;5041551;28;20291;-52
2021/10/24 10:56:54;;;;;;;7.60;3.27;;;14.10;99.90;;;;;;5047131;28;20299;-50
2021/10/24 10:59:35;;;;;;;4.40;3.53;;;14.40;99.90;;;;;;5035452;28;20274;-50
2021/10/24 11:02:27;;;;;;;6.77;3.17;;;14.30;99.90;;;;;;5033894;28;20290;-50
2021/10/24 11:04:58;;;;;;;6.03;3.50;;;14.30;99.90;;;;;;5035415;28;20267;-50
2021/10/24 11:07:39;;;;;;;6.87;3.57;;;14.00;99.90;;;;;;5035732;28;20289;-50
2021/10/24 11:10:27;;;;;;;4.60;3.67;;;14.20;99.90;;;;;;5032008;28;20286;-50
2021/10/24 11:12:55;;;;;;;4.20;3.63;;;14.10;99.90;;;;;;5024814;28;20211;-51
2021/10/24 11:15:28;;;;;;;4.93;3.23;;;14.30;99.90;;;;;;5035430;28;20231;-51
2021/10/24 11:17:59;;;;;;;6.37;3.57;;;14.30;99.90;;;;;;5034704;28;20216;-52
2021/10/24 11:20:40;;;;;;;5.47;3.93;;;13.80;99.90;;;;;;5018637;28;20539;-51
2021/10/24 11:23:11;;;;;;;5.20;3.50;;;14.00;99.90;;;;;;5031282;28;20203;-52
2021/10/24 11:25:47;;;;;;;6.40;3.60;;;14.40;99.90;;;;;;5034187;28;20266;-50
2021/10/24 11:28:17;;;;;;;7.00;3.60;;;14.40;99.90;;;;;;5035741;28;20286;-50
2021/10/24 11:31:01;;;;;;;6.47;3.57;;;14.90;99.90;;;;;;5033748;28;20268;-52
2021/10/24 11:33:48;;;;;;;7.43;3.50;;;15.00;82.10;;;;;;5037041;28;20277;-52
2021/10/24 11:36:23;;;;;;;4.90;3.90;;;15.00;15.30;;;;;;5035571;28;20230;-52
2021/10/24 11:38:55;;;;;;;4.73;4.00;;;15.40;99.90;;;;;;5032583;28;20239;-52
2021/10/24 11:41:22;;;;;;;6.20;3.97;;;15.10;58.10;;;;;;5034448;28;20200;-50
2021/10/24 11:44:03;;;;;;;4.20;3.53;;;15.40;93.00;;;;;;5030334;28;20292;-52
2021/10/24 11:46:31;;;;;;;6.03;3.47;;;15.60;51.20;;;;;;5032054;28;20189;-50
2021/10/24 11:49:03;;;;;;;4.20;3.37;;;15.80;1.00;;;;;;5035462;28;20243;-51
2021/10/24 11:51:30;;;;;;;4.40;3.33;;;15.70;1.00;;;;;;5032675;28;20209;-51
2021/10/24 11:53:57;;;;;;;6.77;3.63;;;15.50;1.00;;;;;;5036521;28;20645;-51
2021/10/24 12:01:28;;;;;;;7.20;3.60;;;16.60;1.00;;;;;;5030676;28;20224;-51
2021/10/24 12:04:04;;;;;;;5.60;3.60;;;17.00;1.00;;;;;;5033989;28;20210;-51
2021/10/24 12:06:53;;;;;;;5.80;3.60;;;17.50;1.00;;;;;;5032287;28;20229;-51
2021/10/24 12:09:37;;;;;;;5.50;3.07;;;16.90;1.00;;;;;;5033779;28;21426;-50
2021/10/24 12:12:09;;;;;;;4.03;3.20;;;17.00;1.00;;;;;;5027953;28;20209;-50
2021/10/24 12:14:56;;;;;;;4.17;3.13;;;16.70;1.00;;;;;;5032257;28;20213;-50
2021/10/24 12:17:32;;;;;;;3.90;2.80;;;17.20;1.00;;;;;;5034340;28;20348;-50
2021/10/24 12:20:28;;;;;;;2.90;2.63;;;17.50;1.00;;;;;;5032773;28;20209;-50
2021/10/24 12:23:00;;;;;;;4.00;3.53;;;17.70;1.00;;;;;;5035813;28;20201;-51
2021/10/24 12:25:45;;;;;;;3.77;3.07;;;17.60;1.00;;;;;;5038102;28;20193;-50
2021/10/24 12:28:23;;;;;;;5.63;3.53;;;17.80;1.00;;;;;;5034132;28;20196;-50
2021/10/24 12:30:53;;;;;;;5.60;3.30;;;18.50;1.00;;;;;;5038984;28;20297;-53
2021/10/24 12:33:40;;;;;;;4.13;3.30;;;18.90;1.00;;;;;;5039362;28;20613;-53
2021/10/24 12:36:09;;;;;;;5.43;3.43;;;19.00;1.00;;;;;;5036491;28;20210;-52
2021/10/24 12:38:49;;;;;;;2.73;2.50;;;18.80;1.00;;;;;;5034322;28;20209;-52
2021/10/24 12:41:38;;;;;;;3.13;2.83;;;18.30;1.00;;;;;;5034567;28;20199;-51
2021/10/24 12:44:10;;;;;;;4.37;3.20;;;17.60;1.00;;;;;;5038831;28;20203;-51
2021/10/24 12:46:39;;;;;;;3.40;2.77;;;17.50;1.00;;;;;;5031831;28;20656;-52
2021/10/24 12:49:16;;;;;;;6.00;3.30;;;18.70;1.00;;;;;;5037677;28;20622;-51
2021/10/24 12:51:45;;;;;;;7.07;3.10;;;19.20;1.00;;;;;;5038083;28;20223;-52
2021/10/24 12:54:25;;;;;;;3.67;2.70;;;19.40;1.00;;;;;;5038351;28;20237;-51
2021/10/24 12:56:52;;;;;;;3.97;3.10;;;19.00;1.00;;;;;;5038966;28;20214;-51
2021/10/24 12:59:19;;;;;;;4.70;2.83;;;18.70;1.00;;;;;;5037291;28;20721;-51
2021/10/24 13:01:48;;;;;;;5.37;3.20;;;18.00;1.00;;;;;;5037635;28;20705;-51
2021/10/24 13:04:15;;;;;;;4.77;3.30;;;17.90;1.00;;;;;;5038503;28;20199;-51
2021/10/24 13:06:42;;;;;;;4.03;3.10;;;18.80;1.00;;;;;;5029682;28;20640;-51
2021/10/24 13:09:09;;;;;;;4.77;3.23;;;19.00;1.00;;;;;;5032628;28;20605;-51